Time;durP1;ratioP1;P1;durP2;ratioP2;P2;SDS_P1;SDS_P2;PMS_P1;PMS_P2;Temp;Humidity;BMP_temperature;BMP_pressure;BME280_temperature;BME280_humidity;BME280_pressure;Samples;Min_cycle;Max_cycle;Signal;HPM_P1;HPM_P2
2021/07/16 00:00:18;;;;;;;;;;;15.30;99.90;;;;;;5044532;28;19925;-59
2021/07/16 00:03:08;;;;;;;;;;;15.30;99.90;;;;;;5052134;28;20070;-60
2021/07/16 00:05:56;;;;;;;;;;;15.20;99.90;;;;;;5048712;28;20044;-60
2021/07/16 00:08:45;;;;;;;;;;;15.10;99.90;;;;;;5046367;28;19931;-60
2021/07/16 00:11:34;;;;;;;;;;;15.10;99.90;;;;;;5051555;28;20466;-60
2021/07/16 00:14:22;;;;;;;;;;;15.10;99.90;;;;;;5038490;28;19975;-60
2021/07/16 00:17:11;;;;;;;;;;;15.00;99.90;;;;;;5047317;28;19925;-60
2021/07/16 00:20:00;;;;;;;;;;;15.00;99.90;;;;;;5052061;28;20022;-60
2021/07/16 00:22:49;;;;;;;;;;;14.90;99.90;;;;;;5052649;28;20408;-60
2021/07/16 00:25:37;;;;;;;;;;;14.90;99.90;;;;;;5050732;28;20292;-60
2021/07/16 00:28:26;;;;;;;;;;;14.90;99.90;;;;;;5052168;28;19944;-59
2021/07/16 00:31:14;;;;;;;;;;;14.80;99.90;;;;;;5037046;28;19925;-59
2021/07/16 00:34:27;;;;;;;;;;;14.80;99.90;;;;;;5051494;28;19925;-62
2021/07/16 00:37:17;;;;;;;;;;;14.70;99.90;;;;;;5051992;28;20010;-60
2021/07/16 00:40:07;;;;;;;;;;;14.70;99.90;;;;;;5052534;28;19925;-60
2021/07/16 00:42:55;;;;;;;;;;;14.70;99.90;;;;;;5043431;28;19952;-60
2021/07/16 00:45:44;;;;;;;;;;;14.70;99.90;;;;;;5045158;28;20304;-60
2021/07/16 00:48:32;;;;;;;;;;;14.70;99.90;;;;;;5050243;28;19929;-59
2021/07/16 00:51:21;;;;;;;;;;;14.70;99.90;;;;;;5036381;28;19925;-60
2021/07/16 00:54:13;;;;;;;;;;;14.70;99.90;;;;;;5050956;28;20385;-59
2021/07/16 00:57:02;;;;;;;;;;;14.60;99.90;;;;;;5049808;28;19932;-59
2021/07/16 00:59:51;;;;;;;;;;;14.60;99.90;;;;;;5051718;28;19984;-59
2021/07/16 01:02:40;;;;;;;;;;;14.60;99.90;;;;;;5051104;28;20383;-59
2021/07/16 01:05:30;;;;;;;;;;;14.60;99.90;;;;;;5049701;28;19924;-60
2021/07/16 01:08:18;;;;;;;;;;;14.50;99.90;;;;;;5049315;28;20331;-59
2021/07/16 01:14:22;;;;;;;;;;;14.40;99.90;;;;;;5052469;28;19960;-59
2021/07/16 01:17:11;;;;;;;;;;;14.40;99.90;;;;;;5044501;28;19924;-59
2021/07/16 01:20:00;;;;;;;;;;;14.40;99.90;;;;;;5050089;28;19929;-59
2021/07/16 01:22:50;;;;;;;;;;;14.30;99.90;;;;;;5051191;28;20443;-59
2021/07/16 01:25:40;;;;;;;;;;;14.20;99.90;;;;;;5051203;28;20462;-59
2021/07/16 01:28:28;;;;;;;;;;;14.20;99.90;;;;;;5049924;28;19931;-59
2021/07/16 01:34:29;;;;;;;;;;;14.10;99.90;;;;;;5049215;28;20007;-62
2021/07/16 01:37:18;;;;;;;;;;;14.00;99.90;;;;;;5050559;28;19947;-61
2021/07/16 01:40:08;;;;;;;;;;;14.00;99.90;;;;;;5049902;28;19963;-59
2021/07/16 01:42:59;;;;;;;;;;;14.00;99.90;;;;;;5051905;28;19925;-60
2021/07/16 01:45:47;;;;;;;;;;;13.90;99.90;;;;;;5047569;28;19991;-60
2021/07/16 01:48:36;;;;;;;;;;;13.90;99.90;;;;;;5051967;28;19947;-59
2021/07/16 01:51:24;;;;;;;;;;;13.90;99.90;;;;;;5063932;28;19936;-60
2021/07/16 01:54:14;;;;;;;;;;;13.90;99.90;;;;;;5056796;28;19952;-60
2021/07/16 01:57:02;;;;;;;;;;;13.90;99.90;;;;;;5049612;28;19929;-60
2021/07/16 01:59:52;;;;;;;;;;;13.80;99.90;;;;;;5049155;28;19964;-59
2021/07/16 02:02:48;;;;;;;;;;;13.80;99.90;;;;;;5050984;28;20041;-59
2021/07/16 02:05:39;;;;;;;;;;;13.80;99.90;;;;;;5048232;28;20377;-60
2021/07/16 02:08:27;;;;;;;;;;;13.80;99.90;;;;;;5049993;28;20402;-60
2021/07/16 02:11:21;;;;;;;;;;;13.80;99.90;;;;;;5045421;28;20010;-60
2021/07/16 02:14:09;;;;;;;;;;;13.70;99.90;;;;;;5050212;28;19925;-59
2021/07/16 02:17:00;;;;;;;;;;;13.60;99.90;;;;;;5045134;28;19932;-61
2021/07/16 02:19:49;;;;;;;;;;;13.60;99.90;;;;;;5050749;28;20065;-59
2021/07/16 02:22:37;;;;;;;;;;;13.80;99.90;;;;;;5049989;28;20029;-59
2021/07/16 02:25:27;;;;;;;;;;;13.80;99.90;;;;;;5050520;28;19925;-60
2021/07/16 02:28:18;;;;;;;;;;;13.70;99.90;;;;;;5050697;28;19944;-59
2021/07/16 02:31:08;;;;;;;;;;;13.60;99.90;;;;;;5044061;28;19933;-59
2021/07/16 02:33:58;;;;;;;;;;;13.50;99.90;;;;;;5050570;28;19964;-59
2021/07/16 02:36:48;;;;;;;;;;;13.50;99.90;;;;;;5051538;28;20011;-59
2021/07/16 02:39:36;;;;;;;;;;;13.50;99.90;;;;;;5047857;28;19935;-60
2021/07/16 02:42:24;;;;;;;;;;;13.50;99.90;;;;;;5050949;28;20444;-59
2021/07/16 02:45:14;;;;;;;;;;;13.50;99.90;;;;;;5045391;28;19925;-60
2021/07/16 02:48:02;;;;;;;;;;;13.50;99.90;;;;;;5050260;28;20395;-59
2021/07/16 02:50:52;;;;;;;;;;;13.40;99.90;;;;;;5053440;28;20254;-60
2021/07/16 02:53:40;;;;;;;;;;;13.40;99.90;;;;;;5054255;28;20277;-60
2021/07/16 02:56:29;;;;;;;;;;;13.40;99.90;;;;;;5053305;28;20300;-59
2021/07/16 02:59:18;;;;;;;;;;;13.30;99.90;;;;;;5050745;28;19933;-61
2021/07/16 03:02:08;;;;;;;;;;;13.30;99.90;;;;;;5049086;28;19987;-59
2021/07/16 03:05:03;;;;;;;;;;;13.30;99.90;;;;;;5055333;28;19925;-59
2021/07/16 03:11:05;;;;;;;;;;;13.40;99.90;;;;;;5053921;28;19929;-59
2021/07/16 03:13:58;;;;;;;;;;;13.40;99.90;;;;;;5053007;28;19932;-62
2021/07/16 03:16:47;;;;;;;;;;;13.40;99.90;;;;;;5047272;28;19932;-60
2021/07/16 03:19:35;;;;;;;;;;;13.40;99.90;;;;;;5053299;28;19980;-60
2021/07/16 03:22:24;;;;;;;;;;;13.30;99.90;;;;;;5052462;28;19924;-60
2021/07/16 03:25:15;;;;;;;;;;;13.40;99.90;;;;;;5051345;28;20332;-62
2021/07/16 03:28:04;;;;;;;;;;;13.40;99.90;;;;;;5053560;28;19999;-59
2021/07/16 03:30:52;;;;;;;;;;;13.40;99.90;;;;;;5046157;28;19932;-59
2021/07/16 03:33:41;;;;;;;;;;;13.50;99.90;;;;;;5054166;28;20392;-59
2021/07/16 03:36:29;;;;;;;;;;;13.50;99.90;;;;;;5039224;28;19990;-62
2021/07/16 03:39:17;;;;;;;;;;;13.50;99.90;;;;;;5055033;28;19924;-60
2021/07/16 03:42:08;;;;;;;;;;;13.50;99.90;;;;;;5050833;28;20281;-59
2021/07/16 03:45:20;;;;;;;;;;;13.60;99.90;;;;;;5046776;28;19925;-59
2021/07/16 03:48:08;;;;;;;;;;;13.70;99.90;;;;;;5053553;28;19932;-60
2021/07/16 03:50:57;;;;;;;;;;;13.70;99.90;;;;;;5056038;28;20308;-59
2021/07/16 03:53:45;;;;;;;;;;;13.70;99.90;;;;;;5056330;28;19929;-59
2021/07/16 03:56:40;;;;;;;;;;;13.80;99.90;;;;;;5055909;28;19925;-59
2021/07/16 03:59:30;;;;;;;;;;;13.80;99.90;;;;;;5053933;28;20324;-60
2021/07/16 04:02:18;;;;;;;;;;;13.90;99.90;;;;;;5051917;28;20342;-60
2021/07/16 04:05:11;;;;;;;;;;;14.00;99.90;;;;;;5052844;28;20326;-60
2021/07/16 04:08:03;;;;;;;;;;;14.00;99.90;;;;;;5054206;28;19932;-60
2021/07/16 04:10:52;;;;;;;;;;;14.20;99.90;;;;;;5053854;28;19925;-60
2021/07/16 04:14:05;;;;;;;;;;;14.20;99.90;;;;;;5053112;28;20006;-60
2021/07/16 04:16:55;;;;;;;;;;;14.30;99.90;;;;;;5047721;28;20476;-59
2021/07/16 04:19:44;;;;;;;;;;;14.50;99.90;;;;;;5052731;28;20373;-59
2021/07/16 04:22:32;;;;;;;;;;;14.60;99.90;;;;;;5052756;28;20104;-59
2021/07/16 04:25:21;;;;;;;;;;;14.70;99.90;;;;;;5053101;28;20018;-60
2021/07/16 04:28:10;;;;;;;;;;;14.80;99.90;;;;;;5051693;28;19925;-59
2021/07/16 04:30:58;;;;;;;;;;;14.90;99.90;;;;;;5046938;28;19925;-60
2021/07/16 04:33:48;;;;;;;;;;;15.00;99.90;;;;;;5052434;28;19947;-59
2021/07/16 04:36:37;;;;;;;;;;;15.00;99.90;;;;;;5051902;28;19955;-59
2021/07/16 04:39:25;;;;;;;;;;;15.20;99.90;;;;;;5052850;28;19929;-59
2021/07/16 04:42:14;;;;;;;;;;;15.30;99.90;;;;;;5053074;28;20409;-60
2021/07/16 04:45:03;;;;;;;;;;;15.40;99.90;;;;;;5046381;28;19925;-60
2021/07/16 04:47:52;;;;;;;;;;;15.40;99.90;;;;;;5050999;28;19988;-59
2021/07/16 04:50:42;;;;;;;;;;;15.50;99.90;;;;;;5065796;28;19913;-60
2021/07/16 04:53:30;;;;;;;;;;;15.50;99.90;;;;;;5059810;28;19925;-60
2021/07/16 04:56:19;;;;;;;;;;;15.60;99.90;;;;;;5054438;28;19925;-60
2021/07/16 04:59:07;;;;;;;;;;;15.70;99.90;;;;;;5050716;28;20276;-60
2021/07/16 05:01:55;;;;;;;;;;;15.80;99.90;;;;;;5047040;28;20130;-60
2021/07/16 05:04:49;;;;;;;;;;;16.00;99.90;;;;;;5051275;28;19932;-60
2021/07/16 05:07:39;;;;;;;;;;;16.10;99.90;;;;;;5051391;28;20504;-60
2021/07/16 05:10:27;;;;;;;;;;;16.10;99.90;;;;;;5051320;28;19925;-60
2021/07/16 05:13:16;;;;;;;;;;;16.10;99.90;;;;;;5050538;28;19929;-60
2021/07/16 05:16:05;;;;;;;;;;;16.10;99.90;;;;;;5047221;28;20836;-60
2021/07/16 05:18:53;;;;;;;;;;;16.30;99.90;;;;;;5052785;28;19928;-60
2021/07/16 05:21:42;;;;;;;;;;;16.50;99.90;;;;;;5052612;28;19944;-59
2021/07/16 05:24:31;;;;;;;;;;;16.70;99.90;;;;;;5052284;28;20281;-60
2021/07/16 05:27:20;;;;;;;;;;;16.90;99.90;;;;;;5052752;28;19932;-59
2021/07/16 05:30:10;;;;;;;;;;;17.00;99.90;;;;;;5045275;28;19977;-60
2021/07/16 05:32:58;;;;;;;;;;;17.10;99.90;;;;;;5042601;28;19925;-59
2021/07/16 05:35:48;;;;;;;;;;;17.20;99.90;;;;;;5052729;28;20090;-60
2021/07/16 05:38:38;;;;;;;;;;;17.20;99.90;;;;;;5050945;28;19928;-60
2021/07/16 05:41:28;;;;;;;;;;;17.50;99.90;;;;;;5043585;28;19929;-60
2021/07/16 05:44:16;;;;;;;;;;;17.50;99.90;;;;;;5053709;28;19929;-60
2021/07/16 05:47:05;;;;;;;;;;;17.60;99.90;;;;;;5047433;28;19929;-60
2021/07/16 05:49:53;;;;;;;;;;;17.60;99.90;;;;;;5053580;28;19925;-60
2021/07/16 05:52:42;;;;;;;;;;;17.70;99.90;;;;;;5053574;28;19932;-60
2021/07/16 05:55:31;;;;;;;;;;;17.80;99.90;;;;;;5054127;28;19931;-63
2021/07/16 05:58:21;;;;;;;;;;;17.90;99.90;;;;;;5041127;28;19924;-60
2021/07/16 06:01:09;;;;;;;;;;;17.90;99.90;;;;;;5050677;28;19999;-60
2021/07/16 06:03:58;;;;;;;;;;;18.10;99.90;;;;;;5056129;28;19925;-60
2021/07/16 06:06:47;;;;;;;;;;;18.20;99.90;;;;;;5049623;28;19929;-60
2021/07/16 06:09:36;;;;;;;;;;;18.50;99.90;;;;;;5053872;28;20024;-60
2021/07/16 06:12:24;;;;;;;;;;;18.70;99.90;;;;;;5060352;28;19924;-60
2021/07/16 06:15:14;;;;;;;;;;;19.40;99.90;;;;;;5037808;28;20063;-60
2021/07/16 06:18:03;;;;;;;;;;;19.90;99.90;;;;;;5053022;28;19929;-60
2021/07/16 06:20:51;;;;;;;;;;;19.50;99.90;;;;;;5051816;28;19925;-59
2021/07/16 06:23:39;;;;;;;;;;;19.90;99.90;;;;;;5058701;28;19935;-60
2021/07/16 06:26:30;;;;;;;;;;;20.20;99.90;;;;;;5057455;28;20004;-60
2021/07/16 06:29:18;;;;;;;;;;;20.10;99.90;;;;;;5055320;28;19925;-60
2021/07/16 06:32:08;;;;;;;;;;;20.60;99.90;;;;;;5049867;28;19932;-60
2021/07/16 06:34:56;;;;;;;;;;;20.60;99.90;;;;;;5067398;28;19966;-60
2021/07/16 06:37:45;;;;;;;;;;;20.50;99.90;;;;;;5050268;28;19932;-62
2021/07/16 06:40:33;;;;;;;;;;;20.60;99.90;;;;;;5056705;28;19924;-60
2021/07/16 06:43:22;;;;;;;;;;;20.80;99.90;;;;;;5065964;28;20375;-60
2021/07/16 06:46:12;;;;;;;;;;;20.60;99.90;;;;;;5071886;28;19925;-61
2021/07/16 06:49:03;;;;;;;;;;;20.60;99.90;;;;;;5086558;28;19932;-60
2021/07/16 06:51:51;;;;;;;;;;;20.90;99.90;;;;;;5077734;28;19909;-60
2021/07/16 06:54:40;;;;;;;;;;;21.40;99.90;;;;;;5078414;28;19964;-60
2021/07/16 06:57:28;;;;;;;;;;;22.20;99.90;;;;;;5077984;28;19931;-61
2021/07/16 07:00:17;;;;;;;;;;;24.10;99.90;;;;;;5069967;28;19935;-60
2021/07/16 07:03:05;;;;;;;;;;;25.80;99.90;;;;;;5075283;28;19955;-61
2021/07/16 07:06:15;;;;;;;;;;;27.10;98.70;;;;;;5075700;28;19948;-61
2021/07/16 07:09:03;;;;;;;;;;;27.90;95.90;;;;;;5065289;28;20431;-60
2021/07/16 07:11:52;;;;;;;;;;;28.90;94.90;;;;;;5059051;28;19932;-60
2021/07/16 07:14:41;;;;;;;;;;;30.10;92.60;;;;;;5057474;28;20376;-63
2021/07/16 07:17:32;;;;;;;;;;;30.90;90.20;;;;;;5050501;28;19931;-61
2021/07/16 07:20:21;;;;;;;;;;;31.70;87.30;;;;;;5055614;28;20023;-61
2021/07/16 07:23:10;;;;;;;;;;;30.90;81.70;;;;;;5053284;28;19968;-60
2021/07/16 07:26:25;;;;;;;;;;;29.60;90.00;;;;;;5053148;28;19960;-61
2021/07/16 07:29:13;;;;;;;;;;;31.30;85.30;;;;;;5055909;28;20383;-60
2021/07/16 07:32:03;;;;;;;;;;;31.30;82.50;;;;;;5040852;28;19931;-61
2021/07/16 07:34:51;;;;;;;;;;;31.60;79.90;;;;;;5043190;28;19925;-60
2021/07/16 07:37:40;;;;;;;;;;;27.30;91.60;;;;;;5037608;28;19925;-60
2021/07/16 07:40:30;;;;;;;;;;;27.10;93.70;;;;;;5029127;28;19958;-61
2021/07/16 07:43:19;;;;;;;;;;;26.80;94.30;;;;;;5025368;28;19940;-60
2021/07/16 07:46:07;;;;;;;;;;;25.90;96.40;;;;;;5036724;28;19925;-62
2021/07/16 07:48:56;;;;;;;;;;;25.20;98.60;;;;;;5033155;28;19926;-60
2021/07/16 07:51:44;;;;;;;;;;;26.80;97.00;;;;;;5042836;28;19932;-60
2021/07/16 07:54:35;;;;;;;;;;;27.30;95.50;;;;;;5035672;28;19932;-60
2021/07/16 07:57:25;;;;;;;;;;;25.50;98.00;;;;;;5035337;28;20016;-59
2021/07/16 08:00:15;;;;;;;;;;;24.50;99.90;;;;;;5033579;28;19955;-60
2021/07/16 08:03:03;;;;;;;;;;;24.60;99.90;;;;;;5036431;28;19975;-59
2021/07/16 08:05:52;;;;;;;;;;;24.20;99.90;;;;;;5035825;28;19925;-61
2021/07/16 08:08:41;;;;;;;;;;;23.70;99.90;;;;;;5029669;28;19935;-60
2021/07/16 08:11:30;;;;;;;;;;;23.70;99.90;;;;;;5032157;28;19992;-60
2021/07/16 08:14:19;;;;;;;;;;;23.20;99.90;;;;;;5029793;28;20305;-59
2021/07/16 08:17:08;;;;;;;;;;;23.10;99.90;;;;;;5039182;28;19959;-59
2021/07/16 08:19:57;;;;;;;;;;;23.20;99.90;;;;;;5036156;28;20025;-60
2021/07/16 08:22:46;;;;;;;;;;;23.60;99.90;;;;;;5034386;28;20383;-60
2021/07/16 08:25:35;;;;;;;;;;;24.00;99.90;;;;;;5024044;28;19925;-60
2021/07/16 08:28:24;;;;;;;;;;;24.10;99.90;;;;;;5035176;28;20408;-60
2021/07/16 08:31:14;;;;;;;;;;;24.10;99.90;;;;;;5039995;28;19925;-60
2021/07/16 08:34:27;;;;;;;;;;;25.00;99.90;;;;;;5026077;28;20012;-60
2021/07/16 08:37:16;;;;;;;;;;;26.70;99.30;;;;;;5019713;28;19925;-60
2021/07/16 08:40:05;;;;;;;;;;;27.40;97.10;;;;;;5033955;28;20357;-60
2021/07/16 08:46:12;;;;;;;;;;;26.50;97.60;;;;;;5014877;28;20311;-60
2021/07/16 08:49:02;;;;;;;;;;;25.80;98.30;;;;;;5033037;28;19925;-60
2021/07/16 08:51:50;;;;;;;;;;;25.80;97.50;;;;;;5032961;28;19959;-61
2021/07/16 08:54:44;;;;;;;;;;;27.00;96.20;;;;;;5033252;28;19936;-61
2021/07/16 08:57:33;;;;;;;;;;;27.30;95.20;;;;;;5033362;28;20008;-62
2021/07/16 09:00:21;;;;;;;;;;;26.60;95.10;;;;;;5026736;28;19933;-62
2021/07/16 09:03:11;;;;;;;;;;;27.80;95.20;;;;;;5034216;28;20377;-62
2021/07/16 09:06:02;;;;;;;;;;;29.40;92.20;;;;;;5032034;28;19929;-62
2021/07/16 09:08:51;;;;;;;;;;;33.00;78.50;;;;;;5033134;28;19925;-62
2021/07/16 09:11:39;;;;;;;;;;;29.50;83.30;;;;;;5032676;28;20392;-62
2021/07/16 09:14:28;;;;;;;;;;;29.20;84.40;;;;;;5033785;28;20012;-62
2021/07/16 09:17:17;;;;;;;;;;;29.30;87.10;;;;;;5026378;28;20000;-61
2021/07/16 09:20:06;;;;;;;;;;;30.70;82.70;;;;;;5028083;28;19928;-62
2021/07/16 09:23:09;;;;;;;;;;;32.50;77.10;;;;;;5031109;28;19964;-62
2021/07/16 09:26:03;;;;;;;;;;;32.40;76.30;;;;;;5028032;28;20324;-62
2021/07/16 09:28:52;;;;;;;;;;;34.40;70.40;;;;;;5036788;28;19925;-62
2021/07/16 09:31:41;;;;;;;;;;;32.00;71.50;;;;;;5036637;28;19971;-63
2021/07/16 09:34:54;;;;;;;;;;;31.00;80.20;;;;;;5043989;28;19948;-62
2021/07/16 09:37:50;;;;;;;;;;;30.40;83.40;;;;;;5046953;28;19931;-64
2021/07/16 09:40:41;;;;;;;;;;;29.60;85.50;;;;;;5047053;28;19964;-62
2021/07/16 09:43:30;;;;;;;;;;;28.10;90.70;;;;;;5052664;28;19933;-62
2021/07/16 09:46:18;;;;;;;;;;;27.70;91.70;;;;;;5038838;28;19932;-61
2021/07/16 09:49:14;;;;;;;;;;;26.90;94.10;;;;;;5052081;28;20443;-61
2021/07/16 09:52:10;;;;;;;;;;;25.90;96.20;;;;;;5050960;28;19936;-61
2021/07/16 09:55:09;;;;;;;;;;;25.20;98.80;;;;;;5051777;28;20373;-61
2021/07/16 09:57:59;;;;;;;;;;;25.60;98.90;;;;;;5054489;28;19932;-62
2021/07/16 10:00:53;;;;;;;;;;;26.30;97.30;;;;;;5046834;28;19932;-61
2021/07/16 10:03:43;;;;;;;;;;;26.40;96.10;;;;;;5057288;28;19948;-61
2021/07/16 10:06:32;;;;;;;;;;;25.60;96.30;;;;;;5056130;28;20340;-61
2021/07/16 10:09:21;;;;;;;;;;;25.50;97.00;;;;;;5055327;28;19932;-61
2021/07/16 10:12:09;;;;;;;;;;;25.90;97.30;;;;;;5056563;28;19983;-61
2021/07/16 10:14:59;;;;;;;;;;;26.30;97.20;;;;;;5056094;28;19932;-61
2021/07/16 10:17:48;;;;;;;;;;;26.20;97.20;;;;;;5051905;28;20226;-61
2021/07/16 10:21:01;;;;;;;;;;;26.10;95.40;;;;;;5053178;28;19983;-64
2021/07/16 10:23:50;;;;;;;;;;;29.50;91.70;;;;;;5057382;28;19928;-63
2021/07/16 10:26:40;;;;;;;;;;;33.70;77.40;;;;;;5055458;28;19933;-61
2021/07/16 10:29:38;;;;;;;;;;;36.10;68.00;;;;;;5057138;28;19925;-61
2021/07/16 10:32:50;;;;;;;;;;;34.60;64.80;;;;;;5049654;28;19925;-62
2021/07/16 10:35:39;;;;;;;;;;;34.90;65.00;;;;;;5051987;28;19925;-61
2021/07/16 10:38:32;;;;;;;;;;;36.90;60.80;;;;;;5042997;28;19925;-61
2021/07/16 10:41:31;;;;;;;;;;;39.30;53.00;;;;;;5056226;28;19928;-64
2021/07/16 10:44:35;;;;;;;;;;;33.20;58.00;;;;;;5040548;28;19982;-62
2021/07/16 10:47:33;;;;;;;;;;;32.70;66.10;;;;;;5054896;28;19932;-62
2021/07/16 10:50:36;;;;;;;;;;;31.80;70.60;;;;;;5054828;28;19925;-62
2021/07/16 10:53:41;;;;;;;;;;;31.60;70.60;;;;;;5044262;28;19932;-62
2021/07/16 10:56:43;;;;;;;;;;;29.80;72.60;;;;;;5042413;28;19925;-62
2021/07/16 11:03:06;;;;;;;;;;;27.40;85.90;;;;;;5053995;28;19982;-61
2021/07/16 11:05:56;;;;;;;;;;;28.20;81.00;;;;;;5063456;28;20015;-61
2021/07/16 11:09:03;;;;;;;;;;;26.20;89.10;;;;;;5053924;28;20003;-62
2021/07/16 11:11:51;;;;;;;;;;;25.70;91.10;;;;;;5042918;28;19924;-61
2021/07/16 11:14:44;;;;;;;;;;;25.70;92.20;;;;;;5041339;28;19929;-61
2021/07/16 11:17:39;;;;;;;;;;;25.40;91.80;;;;;;5028285;28;20010;-63
2021/07/16 11:20:31;;;;;;;;;;;27.30;90.60;;;;;;5031700;28;20408;-60
2021/07/16 11:23:51;;;;;;;;;;;29.40;83.60;;;;;;5027699;28;20055;-61
2021/07/16 11:26:46;;;;;;;;;;;29.00;81.30;;;;;;5036792;28;20050;-61
2021/07/16 11:29:36;;;;;;;;;;;27.80;85.30;;;;;;5037149;28;19994;-62
2021/07/16 11:32:25;;;;;;;;;;;27.80;88.70;;;;;;5029364;28;19940;-61
2021/07/16 11:35:15;;;;;;;;;;;28.50;85.00;;;;;;5041960;28;19926;-63
2021/07/16 11:38:07;;;;;;;;;;;28.60;84.50;;;;;;5018306;28;19968;-60
2021/07/16 11:41:07;;;;;;;;;;;27.40;88.40;;;;;;5034443;28;19935;-60
2021/07/16 11:43:58;;;;;;;;;;;27.60;89.30;;;;;;5022270;28;19936;-60
2021/07/16 11:46:46;;;;;;;;;;;27.60;87.70;;;;;;5027431;28;19936;-60
2021/07/16 11:49:34;;;;;;;;;;;27.40;88.60;;;;;;5034544;28;20408;-60
2021/07/16 11:52:25;;;;;;;;;;;27.00;89.80;;;;;;5028556;28;19925;-60
2021/07/16 11:55:15;;;;;;;;;;;26.90;89.10;;;;;;5032938;28;19932;-63
2021/07/16 11:58:10;;;;;;;;;;;26.90;88.90;;;;;;5029097;28;19929;-61
2021/07/16 12:01:12;;;;;;;;;;;27.30;89.40;;;;;;5019829;28;19925;-60
2021/07/16 12:04:20;;;;;;;;;;;27.50;89.80;;;;;;5034105;28;19932;-61
2021/07/16 12:07:09;;;;;;;;;;;27.40;86.80;;;;;;5030388;28;19926;-60
2021/07/16 12:09:57;;;;;;;;;;;27.20;89.10;;;;;;5031964;28;19925;-60
2021/07/16 12:12:46;;;;;;;;;;;26.50;90.30;;;;;;5033351;28;19925;-60
2021/07/16 12:15:36;;;;;;;;;;;26.30;91.20;;;;;;5028372;28;19925;-60
2021/07/16 12:18:25;;;;;;;;;;;26.10;91.00;;;;;;5032889;28;20012;-61
2021/07/16 12:21:16;;;;;;;;;;;25.90;90.70;;;;;;5025193;28;19933;-61
2021/07/16 12:24:05;;;;;;;;;;;26.00;90.40;;;;;;5032414;28;19932;-61
2021/07/16 12:27:03;;;;;;;;;;;26.00;90.70;;;;;;5021117;28;19932;-62
2021/07/16 12:29:55;;;;;;;;;;;26.40;90.50;;;;;;5034444;28;20328;-62
2021/07/16 12:32:46;;;;;;;;;;;26.60;90.00;;;;;;5049714;28;19924;-62
2021/07/16 12:35:37;;;;;;;;;;;27.00;87.90;;;;;;5034958;28;19925;-62
2021/07/16 12:38:30;;;;;;;;;;;27.10;86.90;;;;;;5021613;28;19948;-62
2021/07/16 12:41:21;;;;;;;;;;;27.20;86.10;;;;;;5031310;28;19925;-62
2021/07/16 12:44:10;;;;;;;;;;;27.30;85.50;;;;;;5035723;28;20056;-62
2021/07/16 12:46:58;;;;;;;;;;;27.70;85.90;;;;;;5025239;28;20008;-61
2021/07/16 12:49:49;;;;;;;;;;;27.60;85.20;;;;;;5028779;28;19925;-62
2021/07/16 12:52:38;;;;;;;;;;;27.70;86.00;;;;;;5039242;28;19925;-61
2021/07/16 12:55:29;;;;;;;;;;;27.20;85.10;;;;;;5032648;28;19925;-62
2021/07/16 12:58:18;;;;;;;;;;;27.00;89.00;;;;;;5033998;28;20368;-62
2021/07/16 13:01:07;;;;;;;;;;;26.30;86.70;;;;;;5023584;28;19961;-62
2021/07/16 13:07:22;;;;;;;;;;;25.90;89.30;;;;;;5034781;28;19925;-62
2021/07/16 13:10:23;;;;;;;;;;;26.10;87.40;;;;;;5033258;28;19929;-62
2021/07/16 13:13:12;;;;;;;;;;;26.60;87.50;;;;;;5036899;28;20045;-62
2021/07/16 13:16:07;;;;;;;;;;;26.80;87.70;;;;;;5027499;28;20397;-61
2021/07/16 13:18:56;;;;;;;;;;;26.80;89.40;;;;;;5051149;28;19948;-61
2021/07/16 13:21:45;;;;;;;;;;;26.50;88.70;;;;;;5046290;28;19932;-61
2021/07/16 13:24:35;;;;;;;;;;;25.80;90.20;;;;;;5032286;28;19988;-61
2021/07/16 13:27:24;;;;;;;;;;;25.20;91.30;;;;;;5041609;28;19925;-61
2021/07/16 13:30:13;;;;;;;;;;;25.20;91.30;;;;;;5029959;28;19929;-61
2021/07/16 13:33:09;;;;;;;;;;;25.20;91.50;;;;;;5020768;28;19929;-62
2021/07/16 13:35:58;;;;;;;;;;;25.50;91.80;;;;;;5034264;28;20011;-62
2021/07/16 13:38:46;;;;;;;;;;;25.80;91.80;;;;;;5047334;28;19932;-62
2021/07/16 13:41:37;;;;;;;;;;;26.10;90.50;;;;;;5020579;28;20016;-61
2021/07/16 13:44:27;;;;;;;;;;;26.20;90.70;;;;;;5035393;28;19932;-64
2021/07/16 13:47:16;;;;;;;;;;;26.40;90.80;;;;;;5026797;28;19924;-64
2021/07/16 13:50:30;;;;;;;;;;;26.50;87.10;;;;;;5032219;28;19961;-61
2021/07/16 13:53:18;;;;;;;;;;;26.80;87.50;;;;;;5021268;28;19925;-62
2021/07/16 13:56:06;;;;;;;;;;;26.90;87.60;;;;;;5032029;28;19936;-61
2021/07/16 13:58:56;;;;;;;;;;;27.20;87.00;;;;;;5032033;28;19936;-63
2021/07/16 14:01:45;;;;;;;;;;;27.50;86.50;;;;;;5020429;28;20011;-62
2021/07/16 14:04:34;;;;;;;;;;;27.50;87.60;;;;;;5031700;28;20034;-61
2021/07/16 14:07:22;;;;;;;;;;;27.30;84.60;;;;;;5031692;28;20428;-61
2021/07/16 14:10:11;;;;;;;;;;;27.00;84.70;;;;;;5033419;28;19925;-61
2021/07/16 14:13:00;;;;;;;;;;;26.60;86.90;;;;;;5032093;28;20215;-61
2021/07/16 14:15:50;;;;;;;;;;;26.50;88.00;;;;;;5021677;28;19930;-61
2021/07/16 14:18:38;;;;;;;;;;;26.60;88.10;;;;;;5020189;28;19979;-61
2021/07/16 14:21:47;;;;;;;;;;;26.70;86.50;;;;;;5035549;28;20405;-62
2021/07/16 14:24:36;;;;;;;;;;;27.20;87.10;;;;;;5033167;28;19932;-62
2021/07/16 14:27:25;;;;;;;;;;;27.50;85.30;;;;;;5021306;28;19933;-62
2021/07/16 14:30:14;;;;;;;;;;;27.40;85.00;;;;;;5025818;28;20004;-62
2021/07/16 14:33:04;;;;;;;;;;;27.40;84.10;;;;;;5033071;28;19925;-62
2021/07/16 14:35:53;;;;;;;;;;;27.90;84.70;;;;;;5031646;28;20055;-61
2021/07/16 14:38:41;;;;;;;;;;;28.90;80.30;;;;;;5033316;28;19941;-61
2021/07/16 14:41:30;;;;;;;;;;;28.10;79.60;;;;;;5031512;28;19925;-61
2021/07/16 14:44:20;;;;;;;;;;;27.70;79.70;;;;;;5022460;28;20012;-62
2021/07/16 14:47:08;;;;;;;;;;;28.10;83.70;;;;;;5036873;28;19925;-62
2021/07/16 14:49:58;;;;;;;;;;;27.90;81.80;;;;;;5024061;28;20004;-62
2021/07/16 14:52:48;;;;;;;;;;;28.00;81.30;;;;;;5035575;28;19925;-61
2021/07/16 14:58:49;;;;;;;;;;;28.30;80.60;;;;;;5029207;28;19925;-62
2021/07/16 15:01:38;;;;;;;;;;;27.40;81.00;;;;;;5041280;28;20384;-62
2021/07/16 15:04:26;;;;;;;;;;;27.00;85.40;;;;;;5038984;28;19925;-62
2021/07/16 15:07:17;;;;;;;;;;;27.00;85.50;;;;;;5037714;28;19979;-62
2021/07/16 15:10:06;;;;;;;;;;;27.30;83.90;;;;;;5036807;28;20397;-62
2021/07/16 15:12:57;;;;;;;;;;;27.40;85.00;;;;;;5034989;28;19925;-62
2021/07/16 15:15:50;;;;;;;;;;;27.60;85.00;;;;;;5029969;28;19931;-62
2021/07/16 15:18:38;;;;;;;;;;;27.70;84.00;;;;;;5024352;28;19925;-61
2021/07/16 15:21:27;;;;;;;;;;;27.50;83.60;;;;;;5036424;28;19929;-61
2021/07/16 15:24:17;;;;;;;;;;;27.40;84.20;;;;;;5035689;28;20391;-62
2021/07/16 15:30:18;;;;;;;;;;;27.50;85.00;;;;;;5025561;28;19971;-62
2021/07/16 15:33:07;;;;;;;;;;;27.70;84.00;;;;;;5031209;28;20423;-62
2021/07/16 15:36:08;;;;;;;;;;;27.80;83.40;;;;;;5044853;28;19928;-62
2021/07/16 15:38:56;;;;;;;;;;;28.00;82.60;;;;;;5055783;28;20318;-62
2021/07/16 15:42:10;;;;;;;;;;;28.00;81.70;;;;;;5055079;28;20318;-61
2021/07/16 15:44:59;;;;;;;;;;;28.10;81.70;;;;;;5053872;28;20267;-62
2021/07/16 15:47:51;;;;;;;;;;;27.90;80.50;;;;;;5043201;28;20375;-62
2021/07/16 15:50:40;;;;;;;;;;;27.50;80.30;;;;;;5053739;28;20369;-62
2021/07/16 15:53:28;;;;;;;;;;;27.10;79.20;;;;;;5053567;28;19935;-61
2021/07/16 15:56:16;;;;;;;;;;;27.20;80.90;;;;;;5053232;28;20319;-61
2021/07/16 15:59:06;;;;;;;;;;;26.90;80.10;;;;;;5049234;28;19932;-61
2021/07/16 16:01:55;;;;;;;;;;;27.00;81.80;;;;;;5044242;28;19924;-61
2021/07/16 16:04:44;;;;;;;;;;;27.30;81.90;;;;;;5054356;28;19924;-61
2021/07/16 16:07:33;;;;;;;;;;;27.70;81.70;;;;;;5052442;28;20381;-61
2021/07/16 16:10:21;;;;;;;;;;;27.80;81.00;;;;;;5042171;28;20348;-61
2021/07/16 16:13:09;;;;;;;;;;;27.90;81.70;;;;;;5053722;28;20340;-61
2021/07/16 16:15:59;;;;;;;;;;;28.00;81.50;;;;;;5045849;28;20011;-62
2021/07/16 16:18:48;;;;;;;;;;;28.00;81.60;;;;;;5041545;28;20292;-61
2021/07/16 16:21:36;;;;;;;;;;;27.90;81.50;;;;;;5052023;28;20368;-62
2021/07/16 16:24:25;;;;;;;;;;;27.70;84.30;;;;;;5053818;28;19925;-61
2021/07/16 16:30:26;;;;;;;;;;;27.40;84.80;;;;;;5053408;28;19925;-60
2021/07/16 16:33:15;;;;;;;;;;;27.40;84.00;;;;;;5053827;28;19928;-60
2021/07/16 16:36:05;;;;;;;;;;;27.30;85.30;;;;;;5058219;28;19936;-62
2021/07/16 16:38:53;;;;;;;;;;;27.10;83.00;;;;;;5054496;28;20320;-61
2021/07/16 16:42:06;;;;;;;;;;;26.70;84.40;;;;;;5054066;28;19971;-62
2021/07/16 16:44:55;;;;;;;;;;;26.50;87.30;;;;;;5053824;28;19925;-62
2021/07/16 16:47:47;;;;;;;;;;;26.40;87.40;;;;;;5060267;28;19925;-62
2021/07/16 16:50:36;;;;;;;;;;;26.20;86.60;;;;;;5065323;28;20368;-61
2021/07/16 16:53:25;;;;;;;;;;;26.10;86.90;;;;;;5037555;28;20422;-59
2021/07/16 16:56:13;;;;;;;;;;;25.80;89.00;;;;;;5054703;28;19929;-60
2021/07/16 16:59:02;;;;;;;;;;;25.20;91.90;;;;;;5045786;28;19925;-61
2021/07/16 17:01:51;;;;;;;;;;;25.00;92.80;;;;;;5032431;28;19925;-60